Time;durP1;ratioP1;P1;durP2;ratioP2;P2;SDS_P1;SDS_P2;PMS_P1;PMS_P2;Temp;Humidity;BMP_temperature;BMP_pressure;BME280_temperature;BME280_humidity;BME280_pressure;Samples;Min_cycle;Max_cycle;Signal;HPM_P1;HPM_P2
2022/06/17 00:02:01;;;;;;;2.37;2.12;;;;;;;17.91;100.00;100466.94;4454000;32;20092;-65
2022/06/17 00:04:29;;;;;;;4.95;2.83;;;;;;;17.86;100.00;100461.81;4453985;32;20105;-65
2022/06/17 00:07:03;;;;;;;3.65;2.40;;;;;;;17.99;100.00;100464.84;4453913;32;20152;-65
2022/06/17 00:09:34;;;;;;;3.40;2.65;;;;;;;18.09;100.00;100460.87;4439315;32;20097;-65
2022/06/17 00:12:03;;;;;;;3.12;2.60;;;;;;;18.13;100.00;100450.97;4453797;32;20474;-65
2022/06/17 00:15:11;;;;;;;4.07;2.35;;;;;;;18.32;100.00;100453.69;4453778;32;20148;-65
2022/06/17 00:17:22;;;;;;;2.58;2.17;;;;;;;18.64;100.00;100455.84;4453735;32;20111;-65
2022/06/17 00:19:49;;;;;;;3.40;2.33;;;;;;;18.50;100.00;100452.91;4453890;32;20100;-65
2022/06/17 00:22:17;;;;;;;4.07;2.10;;;;;;;18.44;100.00;100445.16;4453701;32;20453;-65
2022/06/17 00:24:44;;;;;;;2.62;2.17;;;;;;;18.67;100.00;100456.66;4453686;32;20123;-65
2022/06/17 00:27:12;;;;;;;3.05;1.95;;;;;;;18.86;100.00;100460.25;4453792;32;20085;-65
2022/06/17 00:29:39;;;;;;;1.80;1.70;;;;;;;18.94;100.00;100462.56;4453718;32;20633;-65
2022/06/17 00:32:07;;;;;;;2.97;1.85;;;;;;;18.99;100.00;100471.25;4454781;32;20549;-65
2022/06/17 00:34:35;;;;;;;6.03;2.25;;;;;;;18.80;100.00;100473.88;4455626;32;20439;-65
2022/06/17 00:37:06;;;;;;;2.35;1.80;;;;;;;18.84;100.00;100478.16;4455451;32;20150;-65
2022/06/17 00:39:35;;;;;;;2.80;1.87;;;;;;;18.83;100.00;100466.59;4455494;32;20149;-65
2022/06/17 00:42:11;;;;;;;1.98;1.60;;;;;;;18.66;100.00;100470.91;4455478;32;20636;-65
2022/06/17 00:44:55;;;;;;;1.80;1.70;;;;;;;18.97;100.00;100478.44;4455657;32;20564;-65
2022/06/17 00:47:29;;;;;;;2.17;1.92;;;;;;;19.01;100.00;100477.37;4455450;32;20097;-65
2022/06/17 00:50:15;;;;;;;4.03;1.90;;;;;;;18.92;100.00;100481.34;4455501;32;20081;-65
2022/06/17 00:53:24;;;;;;;3.67;2.40;;;;;;;18.73;100.00;100472.41;4440775;32;20214;-65
2022/06/17 00:56:08;;;;;;;4.55;2.30;;;;;;;18.67;100.00;100470.00;4420374;32;20104;-65
2022/06/17 00:59:01;;;;;;;3.50;2.12;;;;;;;18.54;100.00;100465.16;4455663;32;20099;-65
2022/06/17 01:01:47;;;;;;;2.58;2.30;;;;;;;18.51;100.00;100459.97;4455612;32;20456;-65
2022/06/17 01:04:20;;;;;;;5.85;2.83;;;;;;;18.47;100.00;100458.38;4455562;32;20577;-65
2022/06/17 01:06:56;;;;;;;7.20;3.15;;;;;;;18.40;100.00;100462.22;4455646;32;20172;-65
2022/06/17 01:12:17;;;;;;;4.03;3.03;;;;;;;18.28;100.00;100465.44;4455545;32;20096;-65
2022/06/17 01:14:45;;;;;;;4.65;2.37;;;;;;;18.25;100.00;100468.22;4455377;32;20115;-65
2022/06/17 01:17:16;;;;;;;5.87;3.03;;;;;;;18.21;100.00;100466.63;4455520;32;20525;-65
2022/06/17 01:19:52;;;;;;;3.75;2.90;;;;;;;18.20;100.00;100486.22;4455577;32;20402;-65
2022/06/17 01:22:26;;;;;;;3.53;2.75;;;;;;;18.17;100.00;100476.56;4455575;32;20107;-65
2022/06/17 01:25:16;;;;;;;7.53;3.37;;;;;;;17.96;100.00;100475.66;4455591;32;20554;-65
2022/06/17 01:27:47;;;;;;;7.37;2.55;;;;;;;17.92;100.00;100477.56;4455316;32;20096;-65
2022/06/17 01:30:23;;;;;;;4.80;2.67;;;;;;;17.89;100.00;100475.03;4455675;32;20076;-65
2022/06/17 01:33:05;;;;;;;5.80;2.70;;;;;;;18.04;100.00;100470.00;4455460;32;20347;-65
2022/06/17 01:35:45;;;;;;;4.15;2.80;;;;;;;17.95;100.00;100481.91;4455190;32;20533;-65
2022/06/17 01:38:12;;;;;;;3.50;2.65;;;;;;;17.80;100.00;100494.03;4455185;32;20092;-65
2022/06/17 01:40:41;;;;;;;4.20;2.30;;;;;;;17.77;100.00;100491.50;4455305;32;20514;-65
2022/06/17 01:43:12;;;;;;;6.90;2.70;;;;;;;17.80;100.00;100493.19;4454377;32;20097;-65
2022/06/17 01:45:45;;;;;;;4.18;2.80;;;;;;;17.74;100.00;100494.28;4455251;32;20158;-65
2022/06/17 01:48:15;;;;;;;5.95;3.17;;;;;;;17.84;100.00;100492.13;4455445;32;20096;-65
2022/06/17 01:50:48;;;;;;;3.53;3.05;;;;;;;17.78;100.00;100485.25;4455435;32;20088;-65
2022/06/17 01:53:21;;;;;;;5.93;3.12;;;;;;;17.74;100.00;100504.03;4454914;32;20144;-65
2022/06/17 01:55:54;;;;;;;3.87;3.08;;;;;;;17.79;100.00;100502.97;4455196;32;20089;-65
2022/06/17 01:58:35;;;;;;;3.80;2.95;;;;;;;17.76;100.00;100499.56;4455198;32;20160;-65
2022/06/17 02:01:06;;;;;;;9.48;2.45;;;;;;;17.83;100.00;100501.91;4455254;32;20114;-65
2022/06/17 02:03:39;;;;;;;4.55;3.15;;;;;;;17.78;100.00;100511.03;4455253;32;20089;-65
2022/06/17 02:06:21;;;;;;;3.25;2.90;;;;;;;17.80;100.00;100512.69;4454919;32;20514;-65
2022/06/17 02:08:53;;;;;;;6.05;4.20;;;;;;;17.76;100.00;100510.22;4454947;32;20481;-65
2022/06/17 02:11:21;;;;;;;3.58;3.28;;;;;;;17.84;100.00;100503.66;4455067;32;20149;-65
2022/06/17 02:13:49;;;;;;;4.00;3.70;;;;;;;17.58;100.00;100502.00;4440269;32;20116;-65
2022/06/17 02:16:18;;;;;;;3.97;3.42;;;;;;;17.59;100.00;100497.53;4454829;32;20120;-65
2022/06/17 02:18:47;;;;;;;3.33;2.95;;;;;;;17.63;100.00;100504.47;4454883;32;20104;-65
2022/06/17 02:21:27;;;;;;;4.95;3.30;;;;;;;17.66;100.00;100494.56;4454988;32;20085;-65
2022/06/17 02:23:55;;;;;;;5.90;3.20;;;;;;;17.58;100.00;100499.31;4454891;32;20519;-65
2022/06/17 02:26:23;;;;;;;6.15;3.72;;;;;;;17.62;100.00;100492.94;4454690;32;20460;-65
2022/06/17 02:28:51;;;;;;;7.45;3.80;;;;;;;17.66;100.00;100505.22;4454828;32;20547;-65
2022/06/17 02:31:21;;;;;;;4.22;3.20;;;;;;;17.61;100.00;100493.88;4454934;32;20084;-65
2022/06/17 02:33:51;;;;;;;7.95;3.55;;;;;;;17.59;100.00;100501.03;4454627;32;20452;-65
2022/06/17 02:36:31;;;;;;;8.43;4.03;;;;;;;17.48;100.00;100494.41;4454835;32;20162;-65
2022/06/17 02:39:00;;;;;;;6.05;3.92;;;;;;;17.49;100.00;100496.12;4454844;32;20100;-65
2022/06/17 02:41:28;;;;;;;5.43;3.58;;;;;;;17.47;100.00;100501.53;4454821;32;20080;-65
2022/06/17 02:44:04;;;;;;;7.68;3.78;;;;;;;17.29;100.00;100504.91;4454677;32;20097;-65
2022/06/17 02:46:35;;;;;;;5.80;3.83;;;;;;;17.48;100.00;100513.06;4454775;32;20737;-65
2022/06/17 02:49:06;;;;;;;4.60;3.70;;;;;;;17.51;100.00;100515.59;4454789;32;20089;-65
2022/06/17 02:51:39;;;;;;;8.00;4.32;;;;;;;17.64;100.00;100515.09;4454609;32;20073;-65
2022/06/17 02:54:08;;;;;;;8.05;4.72;;;;;;;17.63;100.00;100528.44;4454586;32;20134;-65
2022/06/17 02:56:37;;;;;;;7.32;4.32;;;;;;;17.53;100.00;100527.09;4454607;32;20135;-65
2022/06/17 02:59:10;;;;;;;7.20;4.97;;;;;;;17.85;100.00;100529.41;4454758;32;20092;-65
2022/06/17 03:01:41;;;;;;;6.05;4.45;;;;;;;17.62;100.00;100526.72;4440149;32;20424;-65
2022/06/17 03:04:18;;;;;;;5.70;4.53;;;;;;;17.46;100.00;100517.59;4440392;32;20096;-65
2022/06/17 03:06:47;;;;;;;9.55;5.50;;;;;;;17.72;100.00;100516.56;4454626;32;20589;-65
2022/06/17 03:09:25;;;;;;;9.50;5.37;;;;;;;17.65;100.00;100513.28;4454492;32;20161;-65
2022/06/17 03:12:01;;;;;;;9.15;5.25;;;;;;;17.58;100.00;100504.66;4454804;32;20142;-65
2022/06/17 03:14:33;;;;;;;11.60;5.65;;;;;;;17.70;100.00;100505.97;4454375;32;20107;-65
2022/06/17 03:17:05;;;;;;;9.85;4.93;;;;;;;17.75;100.00;100505.81;4454426;32;20091;-65
2022/06/17 03:19:36;;;;;;;8.05;6.00;;;;;;;17.79;100.00;100513.62;4454640;32;20716;-65
2022/06/17 03:22:05;;;;;;;12.05;6.53;;;;;;;17.76;100.00;100507.56;4454404;32;20417;-65
2022/06/17 03:24:43;;;;;;;6.35;5.50;;;;;;;17.69;100.00;100514.87;4454388;32;20093;-65
2022/06/17 03:27:23;;;;;;;7.10;6.10;;;;;;;17.68;100.00;100514.03;4454521;32;20100;-65
2022/06/17 03:29:51;;;;;;;7.25;5.93;;;;;;;17.53;100.00;100517.31;4454411;32;20428;-65
2022/06/17 03:32:24;;;;;;;8.32;6.32;;;;;;;17.43;100.00;100510.59;4454448;32;20486;-65
2022/06/17 03:34:54;;;;;;;10.00;6.03;;;;;;;17.44;100.00;100518.50;4454257;32;20459;-65
2022/06/17 03:37:31;;;;;;;7.57;5.37;;;;;;;17.81;100.00;100525.13;4454440;32;20089;-65
2022/06/17 03:40:04;;;;;;;9.60;5.10;;;;;;;17.67;100.00;100522.97;4454637;32;20096;-65
2022/06/17 03:42:59;;;;;;;7.45;5.20;;;;;;;17.58;100.00;100520.62;4454428;32;20372;-68
2022/06/17 03:45:35;;;;;;;7.47;4.80;;;;;;;17.65;100.00;100526.59;4445574;32;20501;-68
2022/06/17 03:48:38;;;;;;;8.88;5.47;;;;;;;17.90;100.00;100534.53;4454111;32;20128;-68
2022/06/17 03:51:12;;;;;;;12.55;4.32;;;;;;;17.76;100.00;100535.06;4451447;32;20127;-68
2022/06/17 03:53:41;;;;;;;5.87;4.47;;;;;;;18.14;100.00;100533.56;4454312;32;20145;-68
2022/06/17 03:56:13;;;;;;;8.30;4.65;;;;;;;18.40;100.00;100536.94;4454149;32;20096;-68
2022/06/17 03:58:43;;;;;;;8.52;4.82;;;;;;;18.15;100.00;100537.94;4454120;32;20093;-68
2022/06/17 04:01:21;;;;;;;9.57;4.60;;;;;;;18.26;100.00;100544.63;4454326;32;20117;-68
2022/06/17 04:03:53;;;;;;;5.40;4.70;;;;;;;18.39;100.00;100541.41;4454388;32;20080;-68
2022/06/17 04:06:25;;;;;;;4.72;4.25;;;;;;;18.45;100.00;100542.97;4453188;32;20150;-68
2022/06/17 04:08:59;;;;;;;4.78;4.25;;;;;;;18.66;100.00;100538.53;4453974;32;20108;-68
2022/06/17 04:11:39;;;;;;;4.60;3.35;;;;;;;19.23;100.00;100538.72;4439589;32;20112;-68
2022/06/17 04:14:34;;;;;;;5.57;3.62;;;;;;;19.41;100.00;100537.00;4453893;32;20467;-68
2022/06/17 04:17:12;;;;;;;7.32;3.65;;;;;;;19.39;100.00;100539.75;4454091;32;20424;-68
2022/06/17 04:19:44;;;;;;;5.22;3.60;;;;;;;19.72;100.00;100542.69;4453853;32;20089;-68
2022/06/17 04:22:19;;;;;;;5.35;3.70;;;;;;;19.74;100.00;100540.81;4453914;32;20108;-68
2022/06/17 04:24:54;;;;;;;4.05;3.42;;;;;;;19.66;100.00;100558.16;4453862;32;20361;-68
2022/06/17 04:27:23;;;;;;;5.80;3.37;;;;;;;19.59;100.00;100558.41;4454016;32;20145;-68
2022/06/17 04:29:54;;;;;;;4.35;2.97;;;;;;;19.74;100.00;100566.69;4453533;32;20105;-69
2022/06/17 04:32:33;;;;;;;6.15;2.95;;;;;;;20.30;100.00;100563.09;4453632;32;20584;-68
2022/06/17 04:35:02;;;;;;;7.12;2.20;;;;;;;20.45;100.00;100554.28;4453779;32;20122;-68
2022/06/17 04:37:30;;;;;;;4.15;2.50;;;;;;;20.70;100.00;100548.56;4453771;32;20456;-68
2022/06/17 04:40:01;;;;;;;3.17;2.53;;;;;;;20.74;100.00;100543.94;4453651;32;20143;-68
2022/06/17 04:42:38;;;;;;;5.72;2.70;;;;;;;20.66;100.00;100546.16;4453748;32;20097;-68
2022/06/17 04:45:06;;;;;;;2.80;2.60;;;;;;;20.82;100.00;100547.09;4453663;32;20111;-68
2022/06/17 04:47:34;;;;;;;5.15;2.28;;;;;;;21.02;100.00;100548.72;4453371;32;20084;-68
2022/06/17 04:50:10;;;;;;;7.90;2.65;;;;;;;21.23;100.00;100544.03;4453380;32;20097;-68
2022/06/17 04:52:44;;;;;;;3.95;2.67;;;;;;;20.70;100.00;100529.84;4453580;32;20212;-68
2022/06/17 04:55:19;;;;;;;6.35;2.22;;;;;;;20.52;100.00;100547.72;4453266;32;20085;-68
2022/06/17 04:57:48;;;;;;;2.60;2.40;;;;;;;20.89;100.00;100537.81;4453479;32;20076;-68
2022/06/17 05:00:26;;;;;;;4.40;2.17;;;;;;;21.04;100.00;100537.94;4453333;32;20132;-68
2022/06/17 05:02:55;;;;;;;2.92;1.87;;;;;;;20.87;100.00;100539.69;4453501;32;20457;-68
2022/06/17 05:05:35;;;;;;;3.10;1.98;;;;;;;20.82;100.00;100533.72;4453287;32;20085;-68
2022/06/17 05:08:10;;;;;;;2.65;2.00;;;;;;;21.04;100.00;100538.81;4453406;32;20068;-69
2022/06/17 05:10:43;;;;;;;2.50;1.92;;;;;;;21.15;100.00;100536.41;4453278;32;20088;-68
2022/06/17 05:13:23;;;;;;;2.42;1.73;;;;;;;21.11;100.00;100547.38;4453223;32;20119;-69
2022/06/17 05:15:51;;;;;;;2.47;1.70;;;;;;;21.24;97.55;100535.94;4453114;32;20491;-68
2022/06/17 05:18:21;;;;;;;1.77;1.67;;;;;;;21.57;95.51;100535.06;4454907;32;20453;-68
2022/06/17 05:20:49;;;;;;;7.20;1.85;;;;;;;21.51;94.79;100534.53;4455130;32;20170;-69
2022/06/17 05:23:17;;;;;;;2.12;1.75;;;;;;;21.55;94.07;100536.09;4455339;32;20193;-69
2022/06/17 05:25:48;;;;;;;4.20;1.55;;;;;;;21.62;92.63;100534.81;4455316;32;20097;-68
2022/06/17 05:28:20;;;;;;;7.00;1.80;;;;;;;21.64;92.05;100535.59;4455104;32;20127;-68
2022/06/17 05:30:52;;;;;;;1.73;1.62;;;;;;;21.75;91.19;100530.50;4455110;32;20192;-68
2022/06/17 05:33:26;;;;;;;2.70;1.65;;;;;;;21.90;90.42;100526.09;4455129;32;20100;-68
2022/06/17 05:35:53;;;;;;;4.30;1.98;;;;;;;22.07;88.37;100522.44;4454968;32;20135;-68
2022/06/17 05:38:21;;;;;;;1.77;1.30;;;;;;;22.36;87.35;100515.41;4454998;32;20089;-69
2022/06/17 05:40:48;;;;;;;4.97;1.60;;;;;;;22.35;87.14;100521.75;4454994;32;20155;-69
2022/06/17 05:43:15;;;;;;;5.18;1.75;;;;;;;22.44;86.69;100531.97;4454867;32;20456;-68
2022/06/17 05:45:42;;;;;;;2.58;1.80;;;;;;;22.67;86.62;100527.88;4454950;32;20100;-68
2022/06/17 05:48:10;;;;;;;4.20;1.70;;;;;;;22.66;86.57;100543.16;4454839;32;20088;-69
2022/06/17 05:50:38;;;;;;;4.43;1.90;;;;;;;22.69;85.51;100558.22;4454852;32;20096;-69
2022/06/17 05:53:08;;;;;;;4.30;2.00;;;;;;;22.95;84.86;100558.50;4455002;32;20499;-69
2022/06/17 05:55:37;;;;;;;6.87;2.55;;;;;;;22.62;86.22;100557.72;4454913;32;20352;-68
2022/06/17 05:58:07;;;;;;;2.35;1.62;;;;;;;22.75;84.82;100582.00;4454885;32;20248;-69
2022/06/17 06:00:35;;;;;;;4.53;1.85;;;;;;;22.43;85.35;100579.41;4454635;32;20164;-69
2022/06/17 06:03:05;;;;;;;1.73;1.60;;;;;;;22.36;86.34;100577.16;4454871;32;20104;-69
2022/06/17 06:05:33;;;;;;;2.95;1.85;;;;;;;22.45;86.14;100581.16;4455140;32;20110;-69
2022/06/17 06:08:02;;;;;;;3.75;1.95;;;;;;;22.57;85.75;100578.59;4455055;32;20131;-69
2022/06/17 06:10:34;;;;;;;3.67;1.85;;;;;;;22.87;84.07;100578.59;4455073;32;20155;-69
2022/06/17 06:13:03;;;;;;;3.80;2.05;;;;;;;22.81;84.55;100587.03;4455032;32;20521;-69
2022/06/17 06:15:38;;;;;;;6.32;2.50;;;;;;;22.52;85.22;100591.44;4454975;32;20069;-69
2022/06/17 06:18:10;;;;;;;4.90;1.70;;;;;;;22.67;85.25;100584.28;4454990;32;20481;-69
2022/06/17 06:20:37;;;;;;;5.72;2.10;;;;;;;22.77;85.16;100590.84;4455032;32;20124;-69
2022/06/17 06:23:04;;;;;;;11.25;2.45;;;;;;;22.77;86.02;100581.94;4454650;32;20148;-69
2022/06/17 06:25:33;;;;;;;7.82;2.42;;;;;;;22.50;85.98;100587.09;4454786;32;20085;-69
2022/06/17 06:28:09;;;;;;;1.52;1.42;;;;;;;22.97;84.75;100587.03;4454954;32;20126;-69
2022/06/17 06:30:38;;;;;;;2.50;1.85;;;;;;;22.96;84.15;100601.41;4454418;32;20101;-69
2022/06/17 06:33:05;;;;;;;4.32;1.85;;;;;;;22.86;85.30;100595.69;4454813;32;20522;-69
2022/06/17 06:35:35;;;;;;;3.95;2.10;;;;;;;23.20;82.82;100596.37;4454605;32;20080;-69
2022/06/17 06:38:04;;;;;;;3.58;2.10;;;;;;;22.88;85.04;100609.03;4454780;32;20508;-69
2022/06/17 06:40:32;;;;;;;5.55;2.12;;;;;;;23.00;86.09;100605.63;4454768;32;20163;-69
2022/06/17 06:42:59;;;;;;;3.72;2.00;;;;;;;23.06;85.08;100607.94;4454675;32;20127;-69
2022/06/17 06:45:35;;;;;;;9.38;2.33;;;;;;;23.36;84.75;100607.91;4454645;32;20088;-69
2022/06/17 06:48:07;;;;;;;11.40;2.08;;;;;;;23.22;84.68;100609.72;4454959;32;20524;-69
2022/06/17 06:50:37;;;;;;;6.57;2.08;;;;;;;23.48;84.49;100606.28;4454568;32;20084;-69
2022/06/17 06:53:05;;;;;;;3.10;2.00;;;;;;;23.44;84.40;100611.97;4454676;32;20111;-70
2022/06/17 06:55:35;;;;;;;7.00;2.20;;;;;;;23.44;84.37;100615.50;4454464;32;20506;-69
2022/06/17 06:58:09;;;;;;;3.95;2.17;;;;;;;23.43;85.74;100610.22;4454745;32;20448;-69
2022/06/17 07:00:43;;;;;;;2.58;1.87;;;;;;;23.48;85.58;100611.66;4454748;32;20092;-69
2022/06/17 07:03:12;;;;;;;3.22;2.03;;;;;;;23.62;82.88;100617.03;4454758;32;20142;-69
2022/06/17 07:05:42;;;;;;;3.42;1.55;;;;;;;23.60;82.49;100610.03;4454616;32;20107;-69
2022/06/17 07:08:13;;;;;;;3.97;2.08;;;;;;;23.92;80.81;100613.41;4454423;32;20088;-69
2022/06/17 07:10:41;;;;;;;4.45;2.08;;;;;;;23.62;81.56;100616.19;4454612;32;20089;-69
2022/06/17 07:13:09;;;;;;;2.55;1.85;;;;;;;23.78;82.15;100610.72;4454576;32;20419;-69
2022/06/17 07:15:39;;;;;;;9.82;2.17;;;;;;;23.79;82.64;100626.78;4454257;32;20107;-69
2022/06/17 07:18:19;;;;;;;2.75;1.90;;;;;;;23.71;82.04;100630.91;4454382;32;20122;-69
2022/06/17 07:20:50;;;;;;;3.45;2.15;;;;;;;24.02;81.47;100629.84;4454388;32;20164;-69
2022/06/17 07:23:19;;;;;;;2.78;1.73;;;;;;;24.13;80.23;100631.84;4454399;32;20109;-69
2022/06/17 07:25:47;;;;;;;4.07;2.00;;;;;;;24.51;78.53;100635.62;4454395;32;20184;-69
2022/06/17 07:28:21;;;;;;;3.60;2.00;;;;;;;24.80;76.10;100628.28;4454398;32;20130;-69
2022/06/17 07:30:51;;;;;;;1.98;1.83;;;;;;;24.45;76.30;100633.34;4454405;32;20454;-69
2022/06/17 07:33:20;;;;;;;2.67;1.67;;;;;;;24.65;77.55;100625.75;4454473;32;20155;-69
2022/06/17 07:35:50;;;;;;;4.40;1.77;;;;;;;24.93;76.40;100631.03;4454364;32;20525;-69
2022/06/17 07:41:09;;;;;;;3.62;1.73;;;;;;;25.27;72.91;100626.91;4453200;32;20081;-69
2022/06/17 07:43:37;;;;;;;5.57;2.10;;;;;;;25.03;72.34;100631.25;4454187;32;20101;-69
2022/06/17 07:46:05;;;;;;;1.95;1.80;;;;;;;25.26;71.27;100638.66;4454296;32;20101;-69
2022/06/17 07:48:33;;;;;;;1.87;1.77;;;;;;;25.27;72.79;100636.84;4454332;32;20119;-69
2022/06/17 07:51:01;;;;;;;2.17;1.95;;;;;;;25.33;70.88;100635.53;4454128;32;20513;-69
2022/06/17 07:53:32;;;;;;;3.12;1.75;;;;;;;24.97;71.35;100637.06;4454065;32;20181;-69
2022/06/17 07:56:00;;;;;;;8.48;2.40;;;;;;;25.06;73.30;100638.28;4454201;32;20077;-69
2022/06/17 07:58:28;;;;;;;6.35;3.58;;;;;;;24.87;73.80;100647.59;4454024;32;20097;-69
2022/06/17 08:00:55;;;;;;;4.57;2.05;;;;;;;24.88;74.38;100649.34;4454061;32;20096;-69
2022/06/17 08:03:23;;;;;;;2.00;1.90;;;;;;;24.83;75.04;100642.53;4454218;32;20096;-69
2022/06/17 08:05:54;;;;;;;2.67;2.20;;;;;;;25.02;75.61;100649.28;4453912;32;20190;-69
2022/06/17 08:08:24;;;;;;;6.75;2.40;;;;;;;25.12;74.02;100648.66;4454025;32;20107;-69
2022/06/17 08:10:58;;;;;;;2.97;2.22;;;;;;;25.19;74.04;100650.84;4453852;32;20135;-69
2022/06/17 08:13:26;;;;;;;2.40;1.77;;;;;;;25.30;72.40;100643.84;4453920;32;20266;-69
2022/06/17 08:15:57;;;;;;;7.15;2.20;;;;;;;25.37;71.98;100650.53;4454006;32;20103;-69
2022/06/17 08:18:24;;;;;;;6.65;2.20;;;;;;;25.38;73.49;100649.59;4453938;32;20072;-69
2022/06/17 08:20:52;;;;;;;8.30;2.20;;;;;;;25.52;71.60;100653.03;4453941;32;20093;-69
2022/06/17 08:23:20;;;;;;;2.50;2.08;;;;;;;25.57;71.54;100659.94;4453912;32;20415;-69
2022/06/17 08:25:47;;;;;;;3.62;2.00;;;;;;;25.14;73.26;100655.69;4453875;32;20096;-69
2022/06/17 08:28:16;;;;;;;3.03;1.85;;;;;;;25.11;73.00;100652.34;4453705;32;20146;-69
2022/06/17 08:30:51;;;;;;;3.50;2.10;;;;;;;25.55;72.04;100651.97;4453707;32;20108;-69
2022/06/17 08:33:32;;;;;;;6.53;2.00;;;;;;;25.91;68.47;100658.47;4454057;32;20085;-69
2022/06/17 08:36:13;;;;;;;3.33;2.12;;;;;;;26.26;62.54;100655.91;4453833;32;20542;-69
2022/06/17 08:38:46;;;;;;;5.62;2.35;;;;;;;26.49;62.61;100659.62;4453754;32;20089;-69
2022/06/17 08:41:32;;;;;;;2.40;2.20;;;;;;;26.98;61.82;100655.09;4453594;32;20154;-70
2022/06/17 08:44:19;;;;;;;7.10;2.72;;;;;;;27.10;61.58;100656.84;4453533;32;20088;-69
2022/06/17 08:47:06;;;;;;;3.15;2.20;;;;;;;27.19;62.15;100655.31;4453529;32;20498;-69
2022/06/17 08:50:05;;;;;;;2.45;2.00;;;;;;;26.97;62.33;100656.06;4453450;32;20362;-69
2022/06/17 08:52:50;;;;;;;4.50;2.47;;;;;;;26.95;62.96;100656.19;4454213;32;20509;-69
2022/06/17 08:55:30;;;;;;;3.67;2.35;;;;;;;27.15;62.05;100655.56;4455260;32;20171;-69
2022/06/17 08:58:10;;;;;;;5.95;1.85;;;;;;;27.49;60.30;100662.88;4455671;32;20072;-69
2022/06/17 09:00:40;;;;;;;4.40;1.70;;;;;;;28.00;58.53;100660.63;4455374;32;20092;-70
2022/06/17 09:03:13;;;;;;;2.78;1.90;;;;;;;28.06;55.52;100660.13;4455318;32;20131;-69
2022/06/17 09:05:40;;;;;;;3.28;1.95;;;;;;;27.75;52.91;100660.84;4455446;32;20437;-69
2022/06/17 09:08:40;;;;;;;3.12;2.00;;;;;;;27.75;53.50;100664.44;4455432;32;20090;-69
2022/06/17 09:11:18;;;;;;;2.03;1.83;;;;;;;28.18;52.35;100665.53;4455559;32;20122;-69
2022/06/17 09:14:12;;;;;;;3.40;1.62;;;;;;;28.29;52.58;100665.53;4455266;32;20084;-69
2022/06/17 09:16:51;;;;;;;3.42;1.40;;;;;;;27.32;53.26;100669.62;4425672;32;20100;-69
2022/06/17 09:19:26;;;;;;;3.22;1.75;;;;;;;27.47;54.06;100673.84;4455351;32;20111;-69
2022/06/17 09:22:00;;;;;;;2.17;1.97;;;;;;;27.55;54.20;100665.97;4455358;32;20100;-69
2022/06/17 09:24:31;;;;;;;3.72;2.17;;;;;;;28.47;52.50;100672.16;4454877;32;20454;-69
2022/06/17 09:27:03;;;;;;;2.87;1.77;;;;;;;28.36;50.54;100675.72;4455066;32;20130;-70
2022/06/17 09:29:56;;;;;;;2.83;1.83;;;;;;;28.62;50.54;100669.19;4455223;32;20133;-69
2022/06/17 09:32:31;;;;;;;3.85;1.98;;;;;;;28.19;51.21;100667.25;4447189;32;20154;-69
2022/06/17 09:35:04;;;;;;;3.73;2.07;;;;;;;28.37;51.24;100676.59;4455143;32;20077;-69
2022/06/17 09:37:58;;;;;;;2.83;2.03;;;;;;;28.26;51.79;100673.91;4455165;32;20086;-69
2022/06/17 09:40:30;;;;;;;3.50;2.33;;;;;;;28.17;51.07;100674.66;4418526;32;20076;-69
2022/06/17 09:43:03;;;;;;;5.93;1.70;;;;;;;28.28;54.22;100682.78;4455182;32;20108;-69
2022/06/17 09:45:38;;;;;;;7.30;2.15;;;;;;;28.58;50.92;100679.41;4454949;32;20097;-69
2022/06/17 09:48:16;;;;;;;2.03;1.77;;;;;;;28.30;50.56;100686.22;4455034;32;20104;-69
2022/06/17 09:50:50;;;;;;;3.53;1.80;;;;;;;27.64;52.10;100678.78;4428222;32;20100;-69
2022/06/17 09:53:34;;;;;;;3.83;2.25;;;;;;;28.21;53.25;100686.97;4455025;32;20076;-69
2022/06/17 09:56:10;;;;;;;4.65;2.10;;;;;;;28.10;52.88;100695.97;4454845;32;20097;-69
2022/06/17 09:58:46;;;;;;;3.40;1.80;;;;;;;28.56;50.78;100698.53;4455075;32;20096;-69
2022/06/17 10:01:13;;;;;;;3.42;1.95;;;;;;;29.49;49.19;100686.22;4454917;32;20731;-69
2022/06/17 10:03:42;;;;;;;4.60;2.00;;;;;;;29.82;50.25;100692.44;4454425;32;20405;-69
2022/06/17 10:06:24;;;;;;;3.72;1.80;;;;;;;29.66;47.13;100706.53;4455023;32;20097;-70
2022/06/17 10:09:09;;;;;;;4.00;2.12;;;;;;;29.11;45.24;100698.50;4454987;32;20084;-69
2022/06/17 10:11:55;;;;;;;3.08;1.90;;;;;;;29.37;46.78;100704.44;4454870;32;20137;-69
2022/06/17 10:14:42;;;;;;;2.47;1.95;;;;;;;29.71;47.84;100710.53;4455038;32;20468;-69
2022/06/17 10:20:33;;;;;;;4.10;1.98;;;;;;;30.14;46.26;100711.31;4454800;32;20182;-69
2022/06/17 10:23:06;;;;;;;5.10;2.08;;;;;;;29.98;45.58;100714.56;4454885;32;20553;-69
2022/06/17 10:26:08;;;;;;;3.83;1.80;;;;;;;30.15;45.10;100715.78;4454795;32;20424;-69
2022/06/17 10:29:10;;;;;;;3.30;1.90;;;;;;;30.09;44.29;100721.75;4454689;32;20178;-69
2022/06/17 10:31:41;;;;;;;2.72;2.05;;;;;;;29.04;47.59;100721.72;4454637;32;20096;-69
2022/06/17 10:34:20;;;;;;;2.00;1.80;;;;;;;30.31;45.01;100724.31;4454774;32;20512;-69
2022/06/17 10:36:52;;;;;;;2.65;1.95;;;;;;;30.68;43.07;100727.28;4454644;32;20085;-69
2022/06/17 10:39:22;;;;;;;3.03;1.87;;;;;;;29.30;43.82;100724.97;4454608;32;20097;-70
2022/06/17 10:41:51;;;;;;;2.10;1.87;;;;;;;29.46;46.18;100722.63;4440181;32;20112;-70
2022/06/17 10:44:23;;;;;;;4.30;2.22;;;;;;;29.51;44.48;100744.84;4454657;32;20504;-70
2022/06/17 10:46:59;;;;;;;3.92;2.35;;;;;;;29.71;46.03;100720.53;4454559;32;20093;-70
2022/06/17 10:49:36;;;;;;;2.72;2.28;;;;;;;29.84;43.42;100712.19;4454372;32;20100;-70
2022/06/17 10:52:14;;;;;;;2.50;1.70;;;;;;;29.52;43.97;100719.41;4454556;32;20088;-70
2022/06/17 10:54:42;;;;;;;6.65;2.20;;;;;;;29.73;43.74;100735.72;4454722;32;20415;-70
2022/06/17 10:57:22;;;;;;;5.80;2.50;;;;;;;30.05;42.10;100723.88;4439706;32;20154;-70
2022/06/17 10:59:49;;;;;;;2.37;1.90;;;;;;;30.30;44.06;100727.19;4454648;32;20084;-70
2022/06/17 11:02:26;;;;;;;11.20;2.62;;;;;;;30.82;42.59;100730.66;4454437;32;20452;-70
2022/06/17 11:04:56;;;;;;;3.50;2.22;;;;;;;30.33;44.32;100730.47;4454478;32;20080;-70
2022/06/17 11:07:30;;;;;;;4.68;2.20;;;;;;;30.31;44.51;100720.72;4454697;32;20088;-70
2022/06/17 11:10:06;;;;;;;4.62;2.45;;;;;;;32.14;41.87;100724.53;4454412;32;20126;-71
2022/06/17 11:12:38;;;;;;;7.45;2.70;;;;;;;31.06;41.36;100732.94;4454514;32;20096;-70
2022/06/17 11:15:26;;;;;;;7.72;2.00;;;;;;;30.27;40.30;100720.16;4454407;32;20494;-70
2022/06/17 11:17:58;;;;;;;3.78;2.10;;;;;;;30.94;40.72;100729.50;4454498;32;20419;-70
2022/06/17 11:20:29;;;;;;;2.58;2.00;;;;;;;31.19;39.96;100722.66;4454526;32;20564;-70
2022/06/17 11:23:21;;;;;;;5.00;2.40;;;;;;;31.09;39.86;100735.37;4454385;32;20484;-70
2022/06/17 11:26:07;;;;;;;4.57;2.20;;;;;;;31.55;39.97;100715.63;4454357;32;20448;-70
2022/06/17 11:28:36;;;;;;;;;;;;;;;30.88;38.83;100725.47;4454948;32;20080;-70
2022/06/17 11:31:28;;;;;;;2.40;2.20;;;;;;;31.31;38.82;100710.66;4454225;32;20377;-70
2022/06/17 11:34:02;;;;;;;2.80;2.10;;;;;;;31.35;36.91;100717.53;4446387;32;20160;-70
2022/06/17 11:36:33;;;;;;;4.62;2.20;;;;;;;32.02;36.45;100721.13;4454517;32;20080;-71
2022/06/17 11:39:28;;;;;;;3.70;2.30;;;;;;;32.39;37.26;100728.44;4454393;32;20666;-70
2022/06/17 11:41:57;;;;;;;2.30;2.10;;;;;;;31.11;39.05;100736.13;4439477;32;20457;-70
2022/06/17 11:44:24;;;;;;;5.62;1.98;;;;;;;31.76;38.61;100726.31;4454569;32;20093;-70
2022/06/17 11:46:55;;;;;;;2.92;2.03;;;;;;;31.84;37.55;100729.19;4454080;32;20080;-70
2022/06/17 11:49:24;;;;;;;3.30;2.00;;;;;;;30.52;38.35;100729.66;4454240;32;20081;-71
2022/06/17 11:52:01;;;;;;;7.70;2.55;;;;;;;30.09;38.73;100724.47;4454209;32;20089;-71
2022/06/17 11:54:37;;;;;;;6.57;2.70;;;;;;;30.16;39.84;100725.66;4454160;32;20530;-77
2022/06/17 11:57:23;;;;;;;4.22;2.10;;;;;;;30.28;38.30;100729.16;4440424;32;20118;-77
2022/06/17 11:59:54;;;;;;;6.50;2.10;;;;;;;31.79;37.28;100726.03;4439739;32;20092;-77
2022/06/17 12:02:22;;;;;;;2.87;2.05;;;;;;;31.87;37.58;100718.03;4454163;32;20128;-77